Time;durP1;ratioP1;P1;durP2;ratioP2;P2;SDS_P1;SDS_P2;PMS_P1;PMS_P2;Temp;Humidity;BMP_temperature;BMP_pressure;BME280_temperature;BME280_humidity;BME280_pressure;Samples;Min_cycle;Max_cycle;Signal;HPM_P1;HPM_P2
2023/04/08 00:01:13;;;;;;;7.25;6.53;;;;;;;9.03;70.34;96850.25;5053539;28;20060;-77
2023/04/08 00:03:40;;;;;;;7.90;6.50;;;;;;;8.98;70.76;96849.97;5053570;28;20091;-77
2023/04/08 00:06:10;;;;;;;8.02;6.20;;;;;;;8.95;71.15;96848.50;5053653;28;20136;-76
2023/04/08 00:08:37;;;;;;;9.25;6.78;;;;;;;8.97;70.92;96851.75;5053613;28;20049;-77
2023/04/08 00:11:05;;;;;;;6.47;5.88;;;;;;;8.99;71.00;96854.19;5053566;28;20046;-77
2023/04/08 00:13:32;;;;;;;7.88;7.07;;;;;;;8.98;70.73;96857.75;5053088;28;20049;-77
2023/04/08 00:16:00;;;;;;;7.57;6.88;;;;;;;8.96;70.81;96849.31;5053174;28;20059;-77
2023/04/08 00:18:28;;;;;;;8.38;7.53;;;;;;;8.91;70.84;96852.41;5053309;28;20500;-78
2023/04/08 00:20:56;;;;;;;7.30;6.45;;;;;;;8.89;71.04;96854.34;5055658;28;20052;-78
2023/04/08 00:23:25;;;;;;;7.72;5.65;;;;;;;8.90;71.66;96852.56;5066950;28;20049;-78
2023/04/08 00:25:52;;;;;;;7.30;6.60;;;;;;;8.93;71.84;96858.25;5067037;28;20120;-77
2023/04/08 00:28:20;;;;;;;10.57;7.57;;;;;;;8.95;71.26;96858.09;5054958;28;20045;-78
2023/04/08 00:30:47;;;;;;;7.60;6.90;;;;;;;8.93;71.13;96855.66;5053580;28;20053;-78
2023/04/08 00:33:15;;;;;;;8.73;7.13;;;;;;;8.92;71.27;96859.25;5053074;28;20049;-78
2023/04/08 00:35:43;;;;;;;7.57;6.40;;;;;;;8.90;71.41;96848.19;5052988;28;20144;-77
2023/04/08 00:38:10;;;;;;;7.78;6.85;;;;;;;8.89;71.35;96845.75;5053167;28;20064;-77
2023/04/08 00:40:39;;;;;;;6.72;6.13;;;;;;;8.89;72.28;96851.75;5053041;28;20136;-77
2023/04/08 00:43:07;;;;;;;6.65;6.05;;;;;;;8.92;71.79;96848.84;5052681;28;20056;-77
2023/04/08 00:45:34;;;;;;;6.40;5.63;;;;;;;8.93;71.69;96842.66;5053001;28;20051;-77
2023/04/08 00:48:03;;;;;;;7.18;6.47;;;;;;;8.92;71.47;96856.66;5052946;28;20056;-77
2023/04/08 00:50:31;;;;;;;9.35;6.72;;;;;;;8.94;71.87;96844.25;5052812;28;20132;-77
2023/04/08 00:52:58;;;;;;;8.05;6.75;;;;;;;8.92;71.53;96854.06;5052645;28;20474;-77
2023/04/08 00:55:26;;;;;;;8.88;7.50;;;;;;;8.90;71.72;96852.56;5052531;28;20049;-77
2023/04/08 00:57:56;;;;;;;11.05;7.35;;;;;;;8.87;71.90;96853.72;5052508;28;20053;-77
2023/04/08 01:00:24;;;;;;;8.00;7.20;;;;;;;8.83;71.71;96858.44;5052654;28;20079;-77
2023/04/08 01:03:01;;;;;;;7.28;6.30;;;;;;;8.84;72.54;96856.66;5052403;28;20152;-77
2023/04/08 01:05:37;;;;;;;6.82;6.03;;;;;;;8.89;72.97;96859.56;5052801;28;20132;-77
2023/04/08 01:08:08;;;;;;;6.68;5.78;;;;;;;8.96;72.32;96854.50;5052530;28;20482;-77
2023/04/08 01:10:40;;;;;;;6.40;5.80;;;;;;;9.01;72.66;96849.66;5052523;28;20045;-77
2023/04/08 01:13:11;;;;;;;6.28;5.68;;;;;;;9.07;72.72;96851.56;5052258;28;20053;-78
2023/04/08 01:15:41;;;;;;;7.05;6.35;;;;;;;9.10;72.48;96851.25;5052383;28;20049;-78
2023/04/08 01:18:12;;;;;;;6.45;5.75;;;;;;;9.14;72.77;96846.50;5052703;28;20128;-77
2023/04/08 01:20:40;;;;;;;6.65;6.05;;;;;;;9.16;72.28;96858.41;5052533;28;20052;-77
2023/04/08 01:23:18;;;;;;;7.32;5.72;;;;;;;9.18;71.65;96850.41;5052123;28;20053;-77
2023/04/08 01:25:49;;;;;;;8.85;7.45;;;;;;;9.15;71.54;96851.56;5052429;28;20123;-77
2023/04/08 01:28:19;;;;;;;6.07;5.47;;;;;;;9.17;71.65;96846.19;5052284;28;20049;-77
2023/04/08 01:30:48;;;;;;;7.65;6.80;;;;;;;9.16;71.03;96845.38;5052264;28;20059;-77
2023/04/08 01:33:18;;;;;;;7.85;6.68;;;;;;;9.10;71.31;96851.25;5052176;28;20048;-77
2023/04/08 01:35:46;;;;;;;9.02;7.05;;;;;;;9.05;71.56;96843.94;5052296;28;20144;-77
2023/04/08 01:38:17;;;;;;;7.80;7.03;;;;;;;9.05;72.03;96838.75;5052419;28;20076;-77
2023/04/08 01:40:47;;;;;;;7.10;6.40;;;;;;;9.07;72.12;96842.00;5052035;28;20508;-77
2023/04/08 01:43:17;;;;;;;8.18;6.68;;;;;;;9.13;71.95;96844.91;5052063;28;20056;-77
2023/04/08 01:45:46;;;;;;;8.30;7.40;;;;;;;9.13;70.96;96839.69;5052107;28;20060;-78
2023/04/08 01:48:15;;;;;;;9.07;8.18;;;;;;;9.11;71.24;96844.25;5052268;28;20053;-78
2023/04/08 01:50:43;;;;;;;8.00;6.68;;;;;;;9.13;71.86;96842.28;5052218;28;20045;-78
2023/04/08 01:53:11;;;;;;;8.70;7.18;;;;;;;9.13;71.88;96842.28;5051925;28;20151;-78
2023/04/08 01:55:40;;;;;;;8.80;7.80;;;;;;;9.10;71.33;96838.25;5051787;28;20045;-77
2023/04/08 01:58:16;;;;;;;8.65;7.25;;;;;;;9.10;72.09;96840.03;5051825;28;20679;-78
2023/04/08 02:00:45;;;;;;;10.90;7.28;;;;;;;9.12;71.84;96838.88;5051683;28;20052;-77
2023/04/08 02:03:14;;;;;;;10.18;8.73;;;;;;;9.12;70.83;96846.69;5051630;28;20060;-78
2023/04/08 02:05:42;;;;;;;9.38;7.90;;;;;;;9.11;71.26;96847.66;5051977;28;20127;-77
2023/04/08 02:08:09;;;;;;;8.52;7.38;;;;;;;9.12;71.47;96840.66;5051740;28;20056;-77
2023/04/08 02:10:37;;;;;;;9.65;8.13;;;;;;;9.13;71.40;96845.69;5053306;28;20064;-78
2023/04/08 02:13:05;;;;;;;10.40;7.57;;;;;;;9.14;71.25;96841.28;5055515;28;20494;-77
2023/04/08 02:15:37;;;;;;;10.82;8.02;;;;;;;9.15;71.42;96848.16;5055710;28;20615;-77
2023/04/08 02:18:11;;;;;;;10.18;7.85;;;;;;;9.15;72.01;96843.75;5055564;28;20048;-78
2023/04/08 02:20:43;;;;;;;8.10;6.93;;;;;;;9.17;71.78;96851.41;5055483;28;20045;-77
2023/04/08 02:23:15;;;;;;;9.32;7.75;;;;;;;9.14;71.30;96846.50;5055076;28;20052;-78
2023/04/08 02:25:45;;;;;;;11.07;9.23;;;;;;;9.07;71.16;96849.78;5055703;28;20079;-77
2023/04/08 02:28:15;;;;;;;11.57;8.68;;;;;;;9.02;71.70;96846.84;5055543;28;20530;-78
2023/04/08 02:30:48;;;;;;;10.30;8.30;;;;;;;9.03;72.70;96848.50;5055394;28;20135;-77
2023/04/08 02:33:19;;;;;;;14.05;9.25;;;;;;;8.98;71.34;96853.38;5055709;28;20121;-78
2023/04/08 02:35:48;;;;;;;12.23;9.35;;;;;;;8.92;71.50;96848.84;5055451;28;20059;-77
2023/04/08 02:38:15;;;;;;;11.27;9.63;;;;;;;8.91;71.90;96852.41;5055510;28;20056;-77
2023/04/08 02:40:43;;;;;;;11.35;9.45;;;;;;;8.85;71.51;96848.69;5055044;28;20087;-78
2023/04/08 02:43:10;;;;;;;11.65;9.90;;;;;;;8.79;71.67;96843.31;5054775;28;20075;-78
2023/04/08 02:45:41;;;;;;;15.15;10.27;;;;;;;8.75;72.56;96842.03;5055207;28;20049;-77
2023/04/08 02:48:11;;;;;;;12.85;10.13;;;;;;;8.76;72.47;96843.66;5055221;28;20137;-77
2023/04/08 02:50:39;;;;;;;11.88;8.90;;;;;;;8.77;72.48;96845.28;5055031;28;20051;-77
2023/04/08 02:53:09;;;;;;;13.95;10.82;;;;;;;8.75;72.36;96853.25;5054738;28;20084;-77
2023/04/08 02:55:36;;;;;;;13.73;10.35;;;;;;;8.69;72.12;96847.88;5054976;28;20136;-77
2023/04/08 02:58:04;;;;;;;12.90;10.52;;;;;;;8.65;72.21;96848.19;5054608;28;20041;-77
2023/04/08 03:00:32;;;;;;;15.07;10.50;;;;;;;8.61;72.48;96846.09;5054528;28;20045;-77
2023/04/08 03:02:59;;;;;;;13.13;10.65;;;;;;;8.56;72.38;96838.78;5054577;28;20049;-78
2023/04/08 03:05:28;;;;;;;12.88;10.27;;;;;;;8.54;73.03;96840.72;5054940;28;20045;-77
2023/04/08 03:07:56;;;;;;;16.25;11.82;;;;;;;8.54;72.83;96848.53;5054884;28;20114;-77
2023/04/08 03:10:24;;;;;;;14.50;11.02;;;;;;;8.54;72.88;96845.94;5054499;28;20531;-78
2023/04/08 03:12:51;;;;;;;13.75;11.63;;;;;;;8.52;72.53;96847.06;5054383;28;20056;-78
2023/04/08 03:15:19;;;;;;;13.15;10.52;;;;;;;8.50;72.85;96847.22;5054352;28;20091;-78
2023/04/08 03:17:47;;;;;;;14.60;10.80;;;;;;;8.49;72.59;96852.63;5055199;28;20048;-77
2023/04/08 03:20:14;;;;;;;12.57;10.57;;;;;;;8.47;72.80;96852.75;5054307;28;20064;-77
2023/04/08 03:22:43;;;;;;;15.95;11.80;;;;;;;8.49;72.87;96856.00;5054020;28;20055;-78
2023/04/08 03:25:11;;;;;;;16.77;12.48;;;;;;;8.50;72.88;96849.03;5054308;28;20049;-77
2023/04/08 03:27:39;;;;;;;16.83;12.70;;;;;;;8.50;72.81;96857.63;5054439;28;20143;-77
2023/04/08 03:30:08;;;;;;;15.00;11.13;;;;;;;8.51;73.33;96861.88;5054225;28;20049;-77
2023/04/08 03:32:35;;;;;;;15.27;11.30;;;;;;;8.53;73.05;96862.53;5054568;28;20052;-77
2023/04/08 03:35:03;;;;;;;15.63;12.43;;;;;;;8.53;73.09;96865.13;5068244;28;20072;-77
2023/04/08 03:37:31;;;;;;;12.93;10.40;;;;;;;8.55;73.41;96851.94;5069244;28;20085;-77
2023/04/08 03:40:00;;;;;;;18.85;13.07;;;;;;;8.55;72.79;96857.97;5072680;22;20048;-83
2023/04/08 03:42:28;;;;;;;17.88;12.63;;;;;;;8.56;72.93;96859.59;5037218;28;20053;-84
2023/04/08 03:44:56;;;;;;;15.43;12.88;;;;;;;8.56;72.79;96858.78;5039618;28;20061;-84
2023/04/08 03:47:23;;;;;;;14.77;11.75;;;;;;;8.55;72.73;96857.13;5038736;28;20045;-80
2023/04/08 03:49:53;;;;;;;13.77;10.90;;;;;;;8.57;73.11;96869.03;5038730;28;20072;-82
2023/04/08 03:52:20;;;;;;;11.82;9.95;;;;;;;8.57;73.33;96861.22;5038606;28;20080;-83
2023/04/08 03:54:48;;;;;;;14.63;11.50;;;;;;;8.60;73.22;96858.28;5038849;28;20046;-79
2023/04/08 03:57:17;;;;;;;12.52;10.32;;;;;;;8.62;73.52;96861.53;5038506;28;20056;-81
2023/04/08 03:59:44;;;;;;;15.85;12.32;;;;;;;8.61;72.81;96866.88;5038666;28;20445;-80
2023/04/08 04:02:12;;;;;;;22.10;13.50;;;;;;;8.56;72.91;96856.97;5037650;28;20057;-81
2023/04/08 04:04:40;;;;;;;15.38;11.95;;;;;;;8.53;73.24;96862.53;5038060;28;20112;-82
2023/04/08 04:07:07;;;;;;;15.60;10.80;;;;;;;8.58;73.92;96857.63;5037919;28;20136;-82
2023/04/08 04:09:35;;;;;;;13.68;10.95;;;;;;;8.61;74.04;96862.50;5038166;28;20049;-82
2023/04/08 04:12:02;;;;;;;15.45;12.52;;;;;;;8.61;73.46;96878.09;5037105;28;20056;-82
2023/04/08 04:14:31;;;;;;;18.92;13.90;;;;;;;8.58;73.57;96873.25;5036918;28;20424;-80
2023/04/08 04:16:59;;;;;;;16.35;13.60;;;;;;;8.54;73.10;96873.72;5037316;28;20061;-82
2023/04/08 04:19:30;;;;;;;20.40;13.90;;;;;;;8.57;74.25;96876.00;5038029;28;20046;-82
2023/04/08 04:21:57;;;;;;;18.00;13.50;;;;;;;8.57;73.26;96881.19;5038932;28;20071;-83
2023/04/08 04:24:25;;;;;;;18.00;14.07;;;;;;;8.55;72.84;96881.38;5039125;28;20063;-84
2023/04/08 04:26:52;;;;;;;17.33;12.85;;;;;;;8.52;73.19;96881.69;5039265;28;20049;-84
2023/04/08 04:29:20;;;;;;;13.32;11.35;;;;;;;8.54;73.69;96877.13;5038828;28;20061;-83
2023/04/08 04:31:49;;;;;;;15.10;11.55;;;;;;;8.58;73.94;96880.22;5038116;28;20049;-82
2023/04/08 04:34:16;;;;;;;16.63;12.05;;;;;;;8.62;73.35;96890.13;5037568;28;20056;-88
2023/04/08 04:36:44;;;;;;;16.50;12.98;;;;;;;8.62;73.03;96879.75;5038518;28;20489;-81
2023/04/08 04:39:12;;;;;;;14.50;11.65;;;;;;;8.62;73.68;96887.53;5037458;28;20049;-82
2023/04/08 04:41:40;;;;;;;15.50;11.23;;;;;;;8.64;73.59;96888.19;5037697;28;20420;-80
2023/04/08 04:44:07;;;;;;;15.82;13.00;;;;;;;8.62;73.40;96890.13;5037731;28;20052;-85
2023/04/08 04:46:35;;;;;;;17.48;12.55;;;;;;;8.57;72.93;96895.03;5038124;28;20049;-84
2023/04/08 04:49:04;;;;;;;18.23;14.10;;;;;;;8.52;72.98;96889.47;5037737;28;20042;-86
2023/04/08 04:51:32;;;;;;;16.15;12.45;;;;;;;8.54;73.05;96897.13;5037580;28;20053;-84
2023/04/08 04:53:59;;;;;;;13.80;11.15;;;;;;;8.57;73.51;96892.44;5037537;28;20484;-83
2023/04/08 04:56:27;;;;;;;14.65;11.25;;;;;;;8.58;73.40;96899.25;5037903;28;20052;-80
2023/04/08 04:58:54;;;;;;;17.38;13.25;;;;;;;8.55;73.07;96902.16;5037636;28;20049;-79
2023/04/08 05:01:22;;;;;;;17.63;13.20;;;;;;;8.52;72.82;96905.06;5037007;28;20054;-78
2023/04/08 05:03:50;;;;;;;18.77;14.20;;;;;;;8.51;72.82;96905.25;5036385;28;20061;-81
2023/04/08 05:06:19;;;;;;;20.52;15.05;;;;;;;8.49;72.82;96909.81;5037206;28;20081;-80
2023/04/08 05:08:46;;;;;;;17.60;13.55;;;;;;;8.46;72.79;96910.91;5036680;28;20077;-78
2023/04/08 05:11:17;;;;;;;17.90;13.65;;;;;;;8.49;73.58;96917.59;5036792;28;20076;-78
2023/04/08 05:13:45;;;;;;;19.92;13.65;;;;;;;8.49;73.06;96915.00;5035722;28;20432;-78
2023/04/08 05:16:12;;;;;;;20.00;14.73;;;;;;;8.47;72.94;96915.16;5036245;28;20054;-82
2023/04/08 05:18:40;;;;;;;18.67;14.13;;;;;;;8.48;72.94;96913.38;5035895;28;20051;-78
2023/04/08 05:21:08;;;;;;;18.17;13.68;;;;;;;8.46;72.75;96921.31;5035198;28;20051;-81
2023/04/08 05:23:37;;;;;;;17.70;13.60;;;;;;;8.45;72.96;96919.69;5035082;28;20067;-82
2023/04/08 05:26:07;;;;;;;21.10;15.35;;;;;;;8.43;73.20;96925.06;5035279;28;20053;-81
2023/04/08 05:28:34;;;;;;;20.90;15.18;;;;;;;8.42;72.80;96925.22;5037631;28;20064;-81
2023/04/08 05:31:02;;;;;;;17.23;13.35;;;;;;;8.40;73.39;96927.16;5037491;28;20047;-82
2023/04/08 05:33:30;;;;;;;16.27;13.30;;;;;;;8.43;73.86;96926.84;5035509;28;20060;-82
2023/04/08 05:35:57;;;;;;;17.90;14.25;;;;;;;8.47;73.49;96922.97;5036751;28;20128;-79
2023/04/08 05:38:25;;;;;;;17.02;12.63;;;;;;;8.48;73.44;96928.97;5036086;28;20053;-79
2023/04/08 05:40:54;;;;;;;15.50;12.50;;;;;;;8.49;73.55;96934.00;5035795;28;20049;-78
2023/04/08 05:43:21;;;;;;;19.20;14.57;;;;;;;8.51;72.75;96939.06;5035513;28;20505;-82
2023/04/08 05:45:49;;;;;;;15.23;12.48;;;;;;;8.51;73.04;96939.88;5040057;28;20055;-78
2023/04/08 05:48:17;;;;;;;15.57;12.85;;;;;;;8.53;72.91;96937.91;5040640;28;20420;-78
2023/04/08 05:50:45;;;;;;;17.27;12.77;;;;;;;8.55;73.06;96940.34;5039848;28;20045;-83
2023/04/08 05:53:12;;;;;;;17.42;13.88;;;;;;;8.56;72.28;96940.19;5039535;28;20046;-80
2023/04/08 05:55:40;;;;;;;14.75;11.80;;;;;;;8.58;72.78;96945.25;5039780;28;20053;-81
2023/04/08 05:58:09;;;;;;;14.93;12.00;;;;;;;8.61;72.19;96944.91;5039212;28;20053;-81
2023/04/08 06:00:37;;;;;;;15.23;12.80;;;;;;;8.61;72.82;96948.31;5038522;28;20057;-81
2023/04/08 06:03:04;;;;;;;17.08;13.77;;;;;;;8.62;71.73;96944.75;5038071;28;20049;-79
2023/04/08 06:05:32;;;;;;;16.23;13.63;;;;;;;8.62;71.71;96946.53;5038684;28;20144;-82
2023/04/08 06:08:00;;;;;;;17.50;13.82;;;;;;;8.61;71.32;96953.50;5038925;28;20064;-80
2023/04/08 06:10:27;;;;;;;18.40;14.40;;;;;;;8.57;71.26;96962.63;5038772;28;20060;-82
2023/04/08 06:12:55;;;;;;;16.95;12.38;;;;;;;8.60;71.76;96964.91;5038569;28;20136;-80
2023/04/08 06:15:25;;;;;;;16.38;13.10;;;;;;;8.63;71.59;96963.75;5038358;28;20049;-78
2023/04/08 06:17:53;;;;;;;16.38;13.68;;;;;;;8.65;71.09;96964.41;5038059;28;20053;-80
2023/04/08 06:20:21;;;;;;;17.75;14.20;;;;;;;8.60;70.58;96972.69;5038249;28;20110;-80
2023/04/08 06:22:48;;;;;;;16.65;13.48;;;;;;;8.55;71.06;96967.19;5038214;28;20045;-80
2023/04/08 06:25:16;;;;;;;16.42;14.15;;;;;;;8.55;71.04;96961.13;5038628;28;20083;-80
2023/04/08 06:27:44;;;;;;;18.08;14.40;;;;;;;8.53;70.81;96963.91;5038782;28;20052;-78
2023/04/08 06:30:12;;;;;;;17.42;13.90;;;;;;;8.56;71.06;96974.00;5038279;28;20049;-81
2023/04/08 06:32:41;;;;;;;20.27;14.68;;;;;;;8.61;70.71;96961.31;5039662;28;20475;-83
2023/04/08 06:35:09;;;;;;;17.52;14.20;;;;;;;8.70;70.69;96963.94;5040050;28;20460;-86
2023/04/08 06:37:37;;;;;;;16.85;13.98;;;;;;;8.77;70.29;96964.94;5040211;28;20128;-84
2023/04/08 06:40:06;;;;;;;15.95;13.50;;;;;;;8.83;70.22;96965.09;5039131;28;20184;-79
2023/04/08 06:42:34;;;;;;;16.92;14.60;;;;;;;8.90;69.98;96964.44;5039324;28;20054;-82
2023/04/08 06:45:02;;;;;;;17.98;14.07;;;;;;;8.95;69.60;96962.19;5039810;28;20427;-79
2023/04/08 06:47:30;;;;;;;16.48;13.65;;;;;;;8.96;69.21;96977.59;5039648;28;20059;-82
2023/04/08 06:49:59;;;;;;;14.43;12.13;;;;;;;8.98;69.19;96973.06;5039580;28;20095;-82
2023/04/08 06:52:26;;;;;;;15.80;13.82;;;;;;;9.01;68.60;96970.16;5039241;28;20493;-83
2023/04/08 06:54:54;;;;;;;16.77;13.55;;;;;;;9.01;68.17;96980.56;5038622;28;20048;-80
2023/04/08 06:57:22;;;;;;;17.67;14.32;;;;;;;9.03;68.03;96981.22;5038149;28;20432;-80
2023/04/08 06:59:50;;;;;;;17.30;13.07;;;;;;;9.08;68.18;96981.53;5038539;28;20080;-84
2023/04/08 07:02:17;;;;;;;17.35;14.32;;;;;;;9.11;67.18;96987.38;5038363;28;20059;-79
2023/04/08 07:04:45;;;;;;;16.50;12.95;;;;;;;9.14;67.85;96984.44;5038455;28;20080;-83
2023/04/08 07:07:15;;;;;;;15.73;13.55;;;;;;;9.13;66.88;96986.25;5038029;28;20060;-80
2023/04/08 07:09:44;;;;;;;17.40;13.95;;;;;;;9.11;67.05;96988.19;5038824;28;20056;-84
2023/04/08 07:12:12;;;;;;;14.75;12.55;;;;;;;9.08;67.39;96984.13;5038294;28;20497;-79
2023/04/08 07:14:40;;;;;;;13.40;12.00;;;;;;;9.12;67.22;96986.38;5037707;28;20053;-78
2023/04/08 07:17:07;;;;;;;17.88;13.63;;;;;;;9.19;66.95;96984.78;5037969;28;20049;-78
2023/04/08 07:19:36;;;;;;;16.20;13.23;;;;;;;9.24;66.94;96992.91;5038861;28;20053;-81
2023/04/08 07:22:04;;;;;;;16.67;12.32;;;;;;;9.27;67.00;96990.81;5038260;28;20053;-84
2023/04/08 07:24:33;;;;;;;16.70;13.00;;;;;;;9.30;66.36;96981.84;5038807;28;20479;-81
2023/04/08 07:27:00;;;;;;;15.57;13.30;;;;;;;9.36;66.40;96981.19;5038298;28;20436;-81
2023/04/08 07:29:28;;;;;;;16.92;12.88;;;;;;;9.40;65.88;96985.09;5038665;28;20045;-79
2023/04/08 07:31:55;;;;;;;16.40;12.88;;;;;;;9.42;65.70;96993.56;5038689;28;20054;-81
2023/04/08 07:34:23;;;;;;;17.23;14.05;;;;;;;9.44;64.43;96994.19;5039453;28;20056;-83
2023/04/08 07:36:51;;;;;;;16.13;12.85;;;;;;;9.46;63.52;97000.03;5040172;28;20210;-80
2023/04/08 07:39:18;;;;;;;17.27;14.70;;;;;;;9.44;63.12;96999.38;5040546;28;20050;-81
2023/04/08 07:41:47;;;;;;;13.90;12.02;;;;;;;9.44;64.03;97001.19;5039141;28;20057;-81
2023/04/08 07:44:16;;;;;;;15.82;13.43;;;;;;;9.45;63.51;97008.03;5038986;28;20420;-79
2023/04/08 07:46:48;;;;;;;14.48;12.35;;;;;;;9.47;63.90;97003.47;5039199;28;20485;-82
2023/04/08 07:49:15;;;;;;;14.65;12.27;;;;;;;9.47;64.00;97004.28;5037909;28;20041;-81
2023/04/08 07:51:43;;;;;;;14.57;12.05;;;;;;;9.46;64.88;97015.66;5037979;28;20045;-78
2023/04/08 07:54:11;;;;;;;17.98;12.10;;;;;;;9.49;64.22;97007.53;5037847;28;20497;-80
2023/04/08 07:56:39;;;;;;;16.45;13.18;;;;;;;9.48;63.44;97013.72;5037921;28;20081;-79
2023/04/08 07:59:08;;;;;;;15.05;12.55;;;;;;;9.50;62.27;97018.75;5037713;28;20045;-79
2023/04/08 08:01:35;;;;;;;17.02;13.77;;;;;;;9.56;64.00;97012.09;5037814;28;20056;-83
2023/04/08 08:04:03;;;;;;;17.27;14.00;;;;;;;9.62;62.37;97016.63;5036541;28;20152;-82
2023/04/08 08:06:32;;;;;;;15.23;12.52;;;;;;;9.64;62.95;97012.91;5037071;28;20053;-79
2023/04/08 08:09:00;;;;;;;21.63;12.73;;;;;;;9.73;61.84;97021.50;5035650;28;20165;-83
2023/04/08 08:11:27;;;;;;;14.98;13.07;;;;;;;9.79;61.99;97023.44;5036436;28;20084;-82
2023/04/08 08:13:55;;;;;;;14.90;12.80;;;;;;;9.84;60.78;97028.16;5038768;28;20492;-81
2023/04/08 08:16:28;;;;;;;15.25;12.15;;;;;;;9.87;61.15;97028.63;5039360;28;20046;-79
2023/04/08 08:18:55;;;;;;;;;;;;;;;9.96;61.14;97039.03;5039493;28;20056;-83
2023/04/08 08:21:23;;;;;;;14.10;11.68;;;;;;;10.04;61.73;97032.00;5039537;28;19921;-79
2023/04/08 08:23:52;;;;;;;15.48;12.48;;;;;;;10.17;60.66;97025.47;5038956;28;20425;-81
2023/04/08 08:26:20;;;;;;;14.60;12.25;;;;;;;10.25;60.40;97023.59;5039010;28;20536;-81
2023/04/08 08:28:47;;;;;;;16.00;13.40;;;;;;;10.40;59.47;97028.97;5038657;28;20151;-78
2023/04/08 08:31:15;;;;;;;12.95;11.05;;;;;;;10.59;59.71;97027.75;5039122;28;20053;-79
2023/04/08 08:33:44;;;;;;;14.50;11.52;;;;;;;10.78;58.54;97033.50;5038131;28;20073;-80
2023/04/08 08:36:12;;;;;;;12.82;11.50;;;;;;;10.96;58.16;97028.84;5039023;28;20501;-82
2023/04/08 08:38:40;;;;;;;12.70;10.88;;;;;;;11.13;57.94;97027.75;5039590;28;20053;-80
2023/04/08 08:41:07;;;;;;;11.70;10.43;;;;;;;11.32;57.33;97036.06;5039906;28;20124;-81
2023/04/08 08:43:35;;;;;;;15.25;12.52;;;;;;;11.36;56.45;97033.94;5039444;28;20068;-77
2023/04/08 08:46:03;;;;;;;14.88;11.70;;;;;;;11.25;55.87;97041.19;5040201;28;20049;-79
2023/04/08 08:48:31;;;;;;;13.00;11.25;;;;;;;11.15;56.48;97045.84;5039824;28;20076;-81
2023/04/08 08:51:00;;;;;;;14.10;11.68;;;;;;;11.08;55.94;97040.47;5038861;28;20046;-82
2023/04/08 08:53:30;;;;;;;14.80;11.93;;;;;;;11.02;56.33;97035.97;5038795;28;20061;-80
2023/04/08 08:56:02;;;;;;;18.17;11.32;;;;;;;10.98;57.39;97042.53;5039211;28;20394;-79
2023/04/08 08:58:33;;;;;;;13.15;10.93;;;;;;;10.90;56.79;97042.56;5039074;28;20063;-83
2023/04/08 09:01:00;;;;;;;13.23;10.52;;;;;;;10.99;52.30;97049.34;5040275;28;20132;-84
2023/04/08 09:03:28;;;;;;;12.18;9.45;;;;;;;11.26;50.72;97052.44;5040170;28;20050;-81
2023/04/08 09:05:58;;;;;;;11.95;9.77;;;;;;;11.42;48.88;97047.09;5039722;28;20424;-81
2023/04/08 09:08:29;;;;;;;13.05;9.80;;;;;;;11.32;47.71;97047.31;5039987;28;20119;-81
2023/04/08 09:11:10;;;;;;;13.80;10.55;;;;;;;11.14;48.57;97057.25;5040233;28;20055;-83
2023/04/08 09:13:38;;;;;;;12.02;9.45;;;;;;;10.96;50.24;97052.31;5039422;28;20516;-79
2023/04/08 09:16:07;;;;;;;12.50;10.43;;;;;;;10.85;49.10;97055.34;5039665;28;20083;-78
2023/04/08 09:18:36;;;;;;;12.55;10.25;;;;;;;10.68;49.42;97047.59;5039109;28;20104;-79
2023/04/08 09:21:05;;;;;;;14.13;11.00;;;;;;;10.55;49.57;97049.94;5039462;28;20049;-80
2023/04/08 09:23:39;;;;;;;11.70;10.02;;;;;;;10.45;48.56;97049.31;5038771;28;20109;-79
2023/04/08 09:26:09;;;;;;;11.57;10.18;;;;;;;10.37;49.40;97042.34;5038352;28;20045;-80
2023/04/08 09:28:36;;;;;;;13.32;10.52;;;;;;;10.29;49.64;97045.78;5037795;28;20049;-82
2023/04/08 09:31:19;;;;;;;12.63;10.60;;;;;;;10.25;49.12;97056.69;5038056;28;20496;-78
2023/04/08 09:33:47;;;;;;;11.55;9.95;;;;;;;10.23;49.63;97050.84;5038081;28;20053;-80
2023/04/08 09:36:15;;;;;;;12.02;9.95;;;;;;;10.24;50.66;97053.28;5038347;28;20129;-80
2023/04/08 09:38:45;;;;;;;12.10;9.43;;;;;;;10.23;50.12;97056.88;5038512;28;20057;-81
2023/04/08 09:41:15;;;;;;;15.35;10.93;;;;;;;10.23;50.34;97056.06;5064344;22;20041;-79
2023/04/08 09:43:48;;;;;;;15.25;9.25;;;;;;;10.18;50.85;97056.56;5052474;28;20424;-79
2023/04/08 09:46:18;;;;;;;15.63;10.18;;;;;;;10.18;50.73;97067.00;5052678;28;20094;-78
2023/04/08 09:48:51;;;;;;;48.75;20.85;;;;;;;10.18;51.24;97056.56;5053062;28;20466;-79
2023/04/08 09:51:20;;;;;;;;;;;;;;;10.23;50.36;97062.09;5053234;28;20144;-78
2023/04/08 09:53:59;;;;;;;25.35;13.43;;;;;;;10.19;51.10;97060.81;5052804;28;19921;-79
2023/04/08 09:56:36;;;;;;;13.77;10.13;;;;;;;10.16;50.12;97061.13;5052875;28;20060;-79
2023/04/08 09:59:11;;;;;;;17.25;12.82;;;;;;;10.11;49.55;97068.66;5061855;28;20049;-79
2023/04/08 10:01:44;;;;;;;44.22;21.08;;;;;;;10.09;49.92;97068.00;5066893;28;20052;-80
2023/04/08 10:04:17;;;;;;;32.38;16.80;;;;;;;10.07;48.91;97067.34;5059597;28;20080;-79
2023/04/08 10:06:46;;;;;;;20.27;12.70;;;;;;;10.05;49.27;97066.69;5053066;28;20507;-78
2023/04/08 10:09:15;;;;;;;24.38;10.38;;;;;;;10.00;49.22;97067.19;5053225;28;20045;-79
2023/04/08 10:11:43;;;;;;;13.90;11.40;;;;;;;10.01;49.66;97070.63;5052934;28;20081;-79
2023/04/08 10:14:11;;;;;;;13.50;8.80;;;;;;;10.00;50.30;97076.81;5056504;28;20113;-79
2023/04/08 10:16:39;;;;;;;19.17;12.55;;;;;;;10.00;50.39;97076.81;5054884;28;20049;-78
2023/04/08 10:19:41;;;;;;;14.77;9.95;;;;;;;9.97;50.26;97079.75;5052836;28;20052;-79
2023/04/08 10:22:46;;;;;;;12.48;10.02;;;;;;;9.97;50.47;97071.94;5052325;28;20107;-78
2023/04/08 10:25:35;;;;;;;12.55;9.10;;;;;;;9.93;50.60;97075.84;5052706;28;20566;-78
2023/04/08 10:28:26;;;;;;;11.63;9.10;;;;;;;9.88;50.97;97071.97;5052585;28;20049;-79
2023/04/08 10:30:55;;;;;;;17.63;11.05;;;;;;;9.87;51.18;97067.72;5052919;28;20075;-78
2023/04/08 10:33:24;;;;;;;16.02;11.30;;;;;;;9.86;52.11;97073.91;5055652;28;20143;-79
2023/04/08 10:36:01;;;;;;;14.95;11.15;;;;;;;9.88;52.60;97077.19;5056153;28;20045;-78
2023/04/08 10:38:29;;;;;;;15.18;10.05;;;;;;;9.94;53.15;97074.88;5055796;28;20049;-79
2023/04/08 10:40:58;;;;;;;11.85;9.55;;;;;;;9.95;52.67;97068.66;5055148;28;20045;-78
2023/04/08 10:43:25;;;;;;;15.77;10.73;;;;;;;9.93;52.12;97075.84;5055708;28;20044;-80
2023/04/08 10:45:53;;;;;;;12.30;9.25;;;;;;;9.91;52.39;97073.41;5055558;28;20056;-79
2023/04/08 10:48:23;;;;;;;10.20;8.90;;;;;;;9.90;51.49;97069.16;5055545;28;20110;-78
2023/04/08 10:50:55;;;;;;;10.50;8.50;;;;;;;9.87;51.11;97083.34;5055436;28;20041;-79
2023/04/08 10:53:27;;;;;;;10.75;8.70;;;;;;;9.85;51.07;97082.69;5055093;28;20455;-79
2023/04/08 10:56:03;;;;;;;8.77;7.88;;;;;;;9.83;51.38;97081.25;5055356;28;20056;-78
2023/04/08 10:58:32;;;;;;;11.30;8.60;;;;;;;9.78;51.46;97073.91;5055468;28;20075;-78
2023/04/08 11:01:04;;;;;;;11.10;7.70;;;;;;;9.78;51.50;97079.13;5054881;28;20059;-79
2023/04/08 11:03:33;;;;;;;8.93;7.63;;;;;;;9.79;51.55;97075.53;5055422;28;20083;-78
2023/04/08 11:06:02;;;;;;;9.98;7.93;;;;;;;9.77;51.53;97069.66;5055290;28;20072;-79
2023/04/08 11:08:31;;;;;;;9.77;6.88;;;;;;;9.74;51.56;97071.81;5055301;28;20052;-80
2023/04/08 11:11:00;;;;;;;8.63;7.03;;;;;;;9.69;51.84;97070.50;5055191;28;20140;-79
2023/04/08 11:13:28;;;;;;;7.88;6.50;;;;;;;9.65;52.35;97069.22;5054918;28;20127;-79
2023/04/08 11:15:58;;;;;;;10.05;7.93;;;;;;;9.63;52.35;97083.38;5055175;28;20119;-79
2023/04/08 11:18:26;;;;;;;8.02;7.22;;;;;;;9.63;52.21;97081.59;5055204;28;20048;-79
2023/04/08 11:20:54;;;;;;;8.25;7.10;;;;;;;9.61;52.35;97074.91;5054760;28;20079;-79
2023/04/08 11:23:25;;;;;;;9.95;7.78;;;;;;;9.57;52.50;97076.22;5054925;28;20052;-79
2023/04/08 11:25:53;;;;;;;8.20;7.25;;;;;;;9.54;52.53;97073.94;5054652;28;20084;-79
2023/04/08 11:28:22;;;;;;;9.02;6.90;;;;;;;9.54;52.83;97079.16;5054791;28;20059;-78
2023/04/08 11:30:50;;;;;;;10.07;7.65;;;;;;;9.55;52.98;97084.19;5054500;28;20080;-79
2023/04/08 11:33:20;;;;;;;8.13;7.10;;;;;;;9.55;53.13;97088.59;5054468;28;20045;-79
2023/04/08 11:35:52;;;;;;;9.35;7.18;;;;;;;9.59;53.56;97089.88;5054667;28;20045;-79
2023/04/08 11:38:23;;;;;;;9.60;8.00;;;;;;;9.63;53.60;97092.00;5054642;28;20049;-79